createdAt,value
2023-03-29T00:01:35.782Z,7.82
2023-03-29T00:04:04.991Z,7.87
2023-03-29T00:06:33.421Z,7.86
2023-03-29T00:09:05.475Z,7.83
2023-03-29T00:11:34.132Z,7.85
2023-03-29T00:14:02.688Z,7.83
2023-03-29T00:16:31.164Z,7.79
2023-03-29T00:19:01.522Z,7.71
2023-03-29T00:21:29.672Z,7.69
2023-03-29T00:23:58.396Z,7.73
2023-03-29T00:26:28.157Z,7.76
2023-03-29T00:28:56.617Z,7.70
2023-03-29T00:31:27.387Z,7.72
2023-03-29T00:33:58.031Z,7.67
2023-03-29T00:36:26.581Z,7.63
2023-03-29T00:38:58.367Z,7.66
2023-03-29T00:41:27.976Z,7.62
2023-03-29T00:44:00.181Z,7.63
2023-03-29T00:46:31.349Z,7.60
2023-03-29T00:49:04.525Z,7.57
2023-03-29T00:51:37.771Z,7.58
2023-03-29T00:54:14.622Z,7.59
2023-03-29T00:56:47.978Z,7.65
2023-03-29T00:59:20.408Z,7.64
2023-03-29T01:01:54.354Z,7.65
2023-03-29T01:04:29.353Z,7.63
2023-03-29T01:07:03.866Z,7.61
2023-03-29T01:09:35.388Z,7.59
2023-03-29T01:12:12.733Z,7.59
2023-03-29T01:14:46.745Z,7.62
2023-03-29T01:17:16.891Z,7.57
2023-03-29T01:19:50.129Z,7.57
2023-03-29T01:22:28.937Z,7.53
2023-03-29T01:25:11.242Z,7.47
2023-03-29T01:27:51.862Z,7.52
2023-03-29T01:30:27.670Z,7.47
2023-03-29T01:32:59.312Z,7.44
2023-03-29T01:35:35.994Z,7.46
2023-03-29T01:38:13.339Z,7.45
2023-03-29T01:40:41.371Z,7.47
2023-03-29T01:43:24.011Z,7.48
2023-03-29T01:46:01.614Z,7.48
2023-03-29T01:48:35.080Z,7.53
2023-03-29T01:51:10.050Z,7.51
2023-03-29T01:53:43.952Z,7.47
2023-03-29T01:56:15.074Z,7.47
2023-03-29T01:58:47.752Z,7.41
2023-03-29T02:01:22.867Z,7.42
2023-03-29T02:03:54.809Z,7.42
2023-03-29T02:06:28.749Z,7.34
2023-03-29T02:08:56.967Z,7.33
2023-03-29T02:11:27.063Z,7.33
2023-03-29T02:13:59.448Z,7.37
2023-03-29T02:16:28.765Z,7.36
2023-03-29T02:19:00.418Z,7.33
2023-03-29T02:21:40.538Z,7.35
2023-03-29T02:24:13.796Z,7.38
2023-03-29T02:26:42.590Z,7.39
2023-03-29T02:29:12.280Z,7.40
2023-03-29T02:31:44.528Z,7.39
2023-03-29T02:34:21.180Z,7.38
2023-03-29T02:36:53.433Z,7.41
2023-03-29T02:39:25.225Z,7.42
2023-03-29T02:41:56.072Z,7.43
2023-03-29T02:44:28.679Z,7.35
2023-03-29T02:47:01.234Z,7.36
2023-03-29T02:49:29.613Z,7.39
2023-03-29T02:52:07.918Z,7.30
2023-03-29T02:54:43.786Z,7.29
2023-03-29T02:57:14.424Z,7.25
2023-03-29T02:59:45.033Z,7.31
2023-03-29T03:02:13.581Z,7.31
2023-03-29T03:04:47.239Z,7.29
2023-03-29T03:07:15.352Z,7.31
2023-03-29T03:09:43.374Z,7.33
2023-03-29T03:12:11.768Z,7.38
2023-03-29T03:14:40.527Z,7.34
2023-03-29T03:17:10.716Z,7.33
2023-03-29T03:19:39.551Z,7.33
2023-03-29T03:22:09.954Z,7.34
2023-03-29T03:24:38.544Z,7.33
2023-03-29T03:27:08.681Z,7.34
2023-03-29T03:29:38.533Z,7.33
2023-03-29T03:32:20.189Z,7.29
2023-03-29T03:35:20.423Z,7.38
2023-03-29T03:37:48.709Z,7.34
2023-03-29T03:40:18.545Z,7.34
2023-03-29T03:42:49.378Z,7.36
2023-03-29T03:45:17.968Z,7.41
2023-03-29T03:47:54.539Z,7.41
2023-03-29T03:50:54.081Z,7.42
2023-03-29T03:53:23.471Z,7.43
2023-03-29T03:56:11.355Z,7.47
2023-03-29T03:58:59.154Z,7.45
2023-03-29T04:01:31.357Z,7.41
2023-03-29T04:04:08.247Z,7.45
2023-03-29T04:06:36.387Z,7.41
2023-03-29T04:09:24.382Z,7.38
2023-03-29T04:12:06.267Z,7.35
2023-03-29T04:14:34.844Z,7.38
2023-03-29T04:17:08.828Z,7.37
2023-03-29T04:20:01.355Z,7.35
2023-03-29T04:22:33.270Z,7.37
2023-03-29T04:25:02.979Z,7.42
2023-03-29T04:27:44.010Z,7.41
2023-03-29T04:30:27.486Z,7.43
2023-03-29T04:33:17.787Z,7.40
2023-03-29T04:35:52.139Z,7.41
2023-03-29T04:38:23.081Z,7.43
2023-03-29T04:40:52.414Z,7.46
2023-03-29T04:43:50.584Z,7.43
2023-03-29T04:46:25.755Z,7.44
2023-03-29T04:49:12.583Z,7.45
2023-03-29T04:51:49.875Z,7.48
2023-03-29T04:54:21.852Z,7.47
2023-03-29T04:57:09.181Z,7.44
2023-03-29T05:00:15.021Z,7.42
2023-03-29T05:03:14.566Z,7.45
2023-03-29T05:05:54.536Z,7.48
2023-03-29T05:08:24.157Z,7.54
2023-03-29T05:11:27.064Z,7.58
2023-03-29T05:13:57.205Z,7.60
2023-03-29T05:16:30.025Z,7.60
2023-03-29T05:19:00.202Z,7.59
2023-03-29T05:21:29.388Z,7.61
2023-03-29T05:24:01.830Z,7.61
2023-03-29T05:26:52.904Z,7.65
2023-03-29T05:29:25.011Z,7.69
2023-03-29T05:32:06.021Z,7.75
2023-03-29T05:34:35.388Z,7.78
2023-03-29T05:37:03.826Z,7.81
2023-03-29T05:39:43.094Z,7.81
2023-03-29T05:42:13.726Z,7.76
2023-03-29T05:44:54.493Z,7.80
2023-03-29T05:47:22.920Z,7.82
2023-03-29T05:49:52.690Z,7.83
2023-03-29T05:52:25.215Z,7.89
2023-03-29T05:54:54.501Z,7.91
2023-03-29T05:57:25.069Z,7.95
2023-03-29T05:59:54.949Z,7.92
2023-03-29T06:02:25.662Z,7.94
2023-03-29T06:04:55.572Z,7.94
2023-03-29T06:07:24.417Z,7.92
2023-03-29T06:10:14.151Z,8.04
2023-03-29T06:12:47.828Z,8.08
2023-03-29T06:15:16.575Z,8.17
2023-03-29T06:17:48.678Z,8.22
2023-03-29T06:20:18.448Z,8.33
2023-03-29T06:22:52.684Z,8.37
2023-03-29T06:25:22.135Z,8.29
2023-03-29T06:27:52.071Z,8.29
2023-03-29T06:30:21.751Z,8.32
2023-03-29T06:32:57.834Z,8.26
2023-03-29T06:35:48.305Z,8.43
2023-03-29T06:38:20.880Z,8.48
2023-03-29T06:41:12.018Z,8.62
2023-03-29T06:43:55.947Z,8.54
2023-03-29T06:46:31.096Z,8.61
2023-03-29T06:49:02.804Z,8.73
2023-03-29T06:51:37.469Z,8.80
2023-03-29T06:54:05.446Z,8.81
2023-03-29T06:56:35.387Z,8.96
2023-03-29T06:59:08.413Z,8.93
2023-03-29T07:01:48.099Z,8.99
2023-03-29T07:04:26.853Z,9.03
2023-03-29T07:07:20.966Z,9.01
2023-03-29T07:09:55.585Z,9.18
2023-03-29T07:13:07.057Z,9.31
2023-03-29T07:15:35.537Z,9.25
2023-03-29T07:18:15.109Z,9.27
2023-03-29T07:20:43.587Z,9.01
2023-03-29T07:23:12.571Z,9.01
2023-03-29T07:25:41.021Z,9.18
2023-03-29T07:28:11.542Z,9.17
2023-03-29T07:30:40.826Z,9.31
2023-03-29T07:33:15.338Z,9.39
2023-03-29T07:35:52.876Z,9.55
2023-03-29T07:38:21.492Z,9.69
2023-03-29T07:40:58.662Z,9.66
2023-03-29T07:43:47.829Z,9.71
2023-03-29T07:46:19.806Z,9.79
2023-03-29T07:48:50.418Z,9.86
2023-03-29T07:51:18.615Z,9.92
2023-03-29T07:53:50.294Z,9.89
2023-03-29T07:56:33.633Z,10.05
2023-03-29T07:59:35.236Z,9.99
2023-03-29T08:02:12.426Z,9.98
2023-03-29T08:04:47.365Z,10.00
2023-03-29T08:07:22.168Z,9.98
2023-03-29T08:10:06.778Z,10.01
2023-03-29T08:12:58.102Z,10.07
2023-03-29T08:15:40.081Z,10.10
2023-03-29T08:18:18.300Z,10.23
2023-03-29T08:20:46.369Z,10.39
2023-03-29T08:23:14.554Z,10.46
2023-03-29T08:26:01.311Z,10.43
2023-03-29T08:28:29.849Z,10.56
2023-03-29T08:31:02.398Z,10.74
2023-03-29T08:33:31.175Z,10.53
2023-03-29T08:36:19.075Z,10.59
2023-03-29T08:38:51.483Z,10.74
2023-03-29T08:41:36.574Z,10.47
2023-03-29T08:44:15.163Z,10.40
2023-03-29T08:47:07.642Z,10.34
2023-03-29T08:49:44.374Z,10.47
2023-03-29T08:52:22.682Z,10.53
2023-03-29T08:54:55.910Z,10.62
2023-03-29T08:57:33.728Z,10.72
2023-03-29T09:00:11.022Z,10.86
2023-03-29T09:02:44.987Z,10.96
2023-03-29T09:05:22.750Z,11.15
2023-03-29T09:08:22.002Z,11.18
2023-03-29T09:11:07.684Z,11.25
2023-03-29T09:13:45.799Z,11.36
2023-03-29T09:16:27.401Z,11.27
2023-03-29T09:19:14.565Z,11.38
2023-03-29T09:21:51.973Z,11.42
2023-03-29T09:24:45.448Z,11.50
2023-03-29T09:27:25.327Z,11.77
2023-03-29T09:30:11.070Z,11.92
2023-03-29T09:33:01.812Z,11.76
2023-03-29T09:35:53.416Z,11.88
2023-03-29T09:38:23.510Z,11.87
2023-03-29T09:40:57.820Z,11.70
2023-03-29T09:43:32.592Z,11.94
2023-03-29T09:46:05.700Z,11.89
2023-03-29T09:48:40.426Z,12.04
2023-03-29T09:51:12.705Z,12.27
2023-03-29T09:53:41.501Z,12.11
2023-03-29T09:56:33.056Z,12.27
2023-03-29T09:59:17.452Z,12.21
2023-03-29T10:01:46.923Z,12.26
2023-03-29T10:04:19.479Z,12.37
2023-03-29T10:06:55.496Z,12.58
2023-03-29T10:09:26.518Z,12.71
2023-03-29T10:12:06.713Z,12.83
2023-03-29T10:14:38.233Z,12.99
2023-03-29T10:17:16.249Z,13.08
2023-03-29T10:19:50.393Z,12.95
2023-03-29T10:22:27.411Z,13.10
2023-03-29T10:24:58.160Z,13.10
2023-03-29T10:27:29.131Z,13.33
2023-03-29T10:30:01.006Z,13.39
2023-03-29T10:32:33.736Z,13.47
2023-03-29T10:35:10.698Z,13.66
2023-03-29T10:37:43.199Z,13.68
2023-03-29T10:40:23.204Z,13.41
2023-03-29T10:42:54.167Z,13.53
2023-03-29T10:45:27.114Z,13.63
2023-03-29T10:47:58.179Z,13.96
2023-03-29T10:50:34.131Z,13.93
2023-03-29T10:53:06.232Z,13.93
2023-03-29T10:55:44.298Z,13.88
2023-03-29T10:58:29.167Z,14.14
2023-03-29T11:00:59.260Z,14.18
2023-03-29T11:03:55.974Z,14.00
2023-03-29T11:06:33.476Z,13.88
2023-03-29T11:09:07.961Z,14.06
2023-03-29T11:12:12.137Z,13.88
2023-03-29T11:14:54.056Z,13.82
2023-03-29T11:17:33.706Z,13.82
2023-03-29T11:20:17.356Z,14.01
2023-03-29T11:22:57.611Z,14.19
2023-03-29T11:25:39.695Z,14.08
2023-03-29T11:28:17.397Z,14.35
2023-03-29T11:30:52.640Z,14.40
2023-03-29T11:33:34.530Z,14.55
2023-03-29T11:36:10.280Z,14.52
2023-03-29T11:38:45.330Z,14.68
2023-03-29T11:41:20.722Z,14.49
2023-03-29T11:43:55.150Z,14.75
2023-03-29T11:46:29.765Z,14.82
2023-03-29T11:49:03.049Z,14.85
2023-03-29T11:51:36.340Z,15.12
2023-03-29T11:54:14.570Z,15.17
2023-03-29T11:56:48.371Z,15.22
2023-03-29T11:59:23.068Z,15.39
2023-03-29T12:01:57.326Z,15.37
2023-03-29T12:04:30.641Z,15.67
2023-03-29T12:07:07.562Z,15.82
2023-03-29T12:09:42.394Z,15.82
2023-03-29T12:12:16.554Z,15.86
2023-03-29T12:14:59.751Z,15.82
2023-03-29T12:17:33.593Z,15.75
2023-03-29T12:20:08.389Z,15.90
2023-03-29T12:22:43.347Z,15.93
2023-03-29T12:25:19.723Z,15.95
2023-03-29T12:28:00.826Z,15.43
2023-03-29T12:30:53.349Z,15.43
2023-03-29T12:33:52.286Z,15.67
2023-03-29T12:37:14.127Z,15.71
2023-03-29T12:40:14.138Z,15.73
2023-03-29T12:43:06.447Z,15.70
2023-03-29T12:45:57.191Z,15.63
2023-03-29T12:48:29.390Z,15.73
2023-03-29T12:51:02.158Z,15.78
2023-03-29T12:53:35.994Z,15.87
2023-03-29T12:56:13.414Z,16.10
2023-03-29T12:59:18.043Z,16.14
2023-03-29T13:02:01.993Z,16.12
2023-03-29T13:04:50.859Z,16.15
2023-03-29T13:07:31.989Z,16.36
2023-03-29T13:10:02.312Z,16.52
2023-03-29T13:12:36.918Z,16.30
2023-03-29T13:15:23.107Z,15.95
2023-03-29T13:18:00.233Z,15.83
2023-03-29T13:20:43.063Z,15.96
2023-03-29T13:23:26.379Z,16.08
2023-03-29T13:26:11.449Z,16.32
2023-03-29T13:28:56.617Z,16.39
2023-03-29T13:31:37.058Z,16.44
2023-03-29T13:34:12.699Z,16.31
2023-03-29T13:36:54.713Z,16.07
2023-03-29T13:39:25.661Z,16.14
2023-03-29T13:41:55.290Z,16.36
2023-03-29T13:44:30.341Z,16.50
2023-03-29T13:47:28.408Z,16.49
2023-03-29T13:50:00.378Z,16.33
2023-03-29T13:52:34.579Z,16.43
2023-03-29T13:55:07.168Z,16.44
2023-03-29T13:57:40.730Z,16.39
2023-03-29T14:00:18.075Z,16.50
2023-03-29T14:02:51.577Z,16.58
2023-03-29T14:05:24.789Z,16.67
2023-03-29T14:07:55.190Z,16.49
2023-03-29T14:10:28.127Z,16.72
2023-03-29T14:12:57.383Z,17.00
2023-03-29T14:15:30.874Z,16.90
2023-03-29T14:18:02.719Z,16.68
2023-03-29T14:20:34.128Z,16.65
2023-03-29T14:23:04.119Z,16.78
2023-03-29T14:25:32.355Z,16.83
2023-03-29T14:28:02.128Z,17.05
2023-03-29T14:30:32.090Z,16.89
2023-03-29T14:33:05.003Z,16.77
2023-03-29T14:35:34.581Z,16.83
2023-03-29T14:38:03.639Z,16.98
2023-03-29T14:40:32.117Z,17.03
2023-03-29T14:43:07.164Z,17.26
2023-03-29T14:45:37.934Z,17.35
2023-03-29T14:48:11.435Z,17.41
2023-03-29T14:50:41.380Z,17.32
2023-03-29T14:53:17.717Z,17.11
2023-03-29T14:55:48.929Z,17.42
2023-03-29T14:58:23.306Z,17.60
2023-03-29T15:00:54.140Z,17.54
2023-03-29T15:03:27.255Z,17.19
2023-03-29T15:06:01.180Z,17.14
2023-03-29T15:08:34.031Z,17.17
2023-03-29T15:11:03.658Z,17.11
2023-03-29T15:13:32.479Z,17.13
2023-03-29T15:16:05.120Z,17.07
2023-03-29T15:18:40.100Z,16.97
2023-03-29T15:21:11.166Z,16.99
2023-03-29T15:23:42.329Z,16.86
2023-03-29T15:26:16.518Z,16.77
2023-03-29T15:28:49.702Z,16.81
2023-03-29T15:31:22.588Z,16.59
2023-03-29T15:34:06.984Z,16.57
2023-03-29T15:36:42.087Z,16.67
2023-03-29T15:39:14.082Z,16.64
2023-03-29T15:41:42.214Z,16.59
2023-03-29T15:44:11.272Z,16.63
2023-03-29T15:46:41.752Z,16.54
2023-03-29T15:49:11.805Z,16.49
2023-03-29T15:51:42.395Z,16.65
2023-03-29T15:54:11.582Z,16.83
2023-03-29T15:56:47.862Z,16.84
2023-03-29T15:59:18.189Z,16.83
2023-03-29T16:01:46.840Z,16.95
2023-03-29T16:04:18.072Z,16.89
2023-03-29T16:06:50.293Z,16.86
2023-03-29T16:09:19.551Z,16.73
2023-03-29T16:11:48.274Z,16.70
2023-03-29T16:14:21.130Z,16.57
2023-03-29T16:16:50.205Z,16.54
2023-03-29T16:19:20.431Z,16.51
2023-03-29T16:21:50.513Z,16.53
2023-03-29T16:24:20.741Z,16.55
2023-03-29T16:26:51.315Z,16.58
2023-03-29T16:29:20.563Z,16.58
2023-03-29T16:31:51.194Z,16.53
2023-03-29T16:34:19.702Z,16.49
2023-03-29T16:36:51.016Z,16.51
2023-03-29T16:39:19.281Z,16.46
2023-03-29T16:41:49.043Z,16.38
2023-03-29T16:44:22.454Z,16.23
2023-03-29T16:46:54.407Z,16.21
2023-03-29T16:49:22.475Z,16.16
2023-03-29T16:51:53.448Z,16.17
2023-03-29T16:54:25.866Z,16.15
2023-03-29T16:56:54.035Z,16.14
2023-03-29T16:59:22.301Z,16.16
2023-03-29T17:01:51.985Z,16.14
2023-03-29T17:04:20.342Z,16.04
2023-03-29T17:06:48.924Z,16.04
2023-03-29T17:09:22.086Z,15.98
2023-03-29T17:11:50.865Z,16.12
2023-03-29T17:14:18.814Z,16.02
2023-03-29T17:16:46.866Z,15.88
2023-03-29T17:19:15.803Z,15.84
2023-03-29T17:21:45.134Z,15.79
2023-03-29T17:24:13.580Z,15.77
2023-03-29T17:26:45.877Z,15.86
2023-03-29T17:29:16.382Z,15.77
2023-03-29T17:31:47.704Z,15.71
2023-03-29T17:34:16.622Z,15.65
2023-03-29T17:36:46.465Z,15.62
2023-03-29T17:39:15.817Z,15.60
2023-03-29T17:41:47.693Z,15.66
2023-03-29T17:44:16.027Z,15.58
2023-03-29T17:46:44.315Z,15.54
2023-03-29T17:49:12.780Z,15.49
2023-03-29T17:51:40.952Z,15.42
2023-03-29T17:54:13.122Z,15.39
2023-03-29T17:56:41.513Z,15.36
2023-03-29T17:59:10.930Z,15.28
2023-03-29T18:01:40.134Z,15.23
2023-03-29T18:04:08.751Z,15.15
2023-03-29T18:06:36.822Z,15.12
2023-03-29T18:09:05.554Z,15.08
2023-03-29T18:11:33.603Z,15.04
2023-03-29T18:14:01.617Z,15.00
2023-03-29T18:16:33.342Z,14.94
2023-03-29T18:19:02.977Z,14.88
2023-03-29T18:21:30.947Z,14.82
2023-03-29T18:24:00.303Z,14.78
2023-03-29T18:26:28.489Z,14.77
2023-03-29T18:28:56.882Z,14.73
2023-03-29T18:31:24.994Z,14.74
2023-03-29T18:33:54.615Z,14.74
2023-03-29T18:36:25.216Z,14.68
2023-03-29T18:38:55.805Z,14.65
2023-03-29T18:41:24.509Z,14.62
2023-03-29T18:43:52.510Z,14.59
2023-03-29T18:46:20.747Z,14.53
2023-03-29T18:48:48.730Z,14.52
2023-03-29T18:51:18.310Z,14.48
2023-03-29T18:53:47.155Z,14.45
2023-03-29T18:56:16.665Z,14.43
2023-03-29T18:58:45.009Z,14.41
2023-03-29T19:01:14.930Z,14.40
2023-03-29T19:03:43.370Z,14.35
2023-03-29T19:06:14.599Z,14.34
2023-03-29T19:08:46.684Z,14.31
2023-03-29T19:11:15.647Z,14.31
2023-03-29T19:13:46.762Z,14.29
2023-03-29T19:16:15.535Z,14.30
2023-03-29T19:18:43.470Z,14.29
2023-03-29T19:21:11.573Z,14.28
2023-03-29T19:23:39.701Z,14.28
2023-03-29T19:26:11.686Z,14.25
2023-03-29T19:28:39.653Z,14.22
2023-03-29T19:31:07.861Z,14.20
2023-03-29T19:33:37.105Z,14.17
2023-03-29T19:36:05.814Z,14.16
2023-03-29T19:38:38.865Z,14.11
2023-03-29T19:41:08.810Z,14.05
2023-03-29T19:43:41.038Z,14.03
2023-03-29T19:46:11.544Z,14.02
2023-03-29T19:48:39.926Z,13.97
2023-03-29T19:51:08.693Z,13.93
2023-03-29T19:53:38.758Z,13.90
2023-03-29T19:56:13.124Z,13.90
2023-03-29T19:58:43.071Z,13.86
2023-03-29T20:01:11.211Z,13.84
2023-03-29T20:03:40.436Z,13.82
2023-03-29T20:06:11.042Z,13.81
2023-03-29T20:08:39.766Z,13.78
2023-03-29T20:11:10.081Z,13.76
2023-03-29T20:13:39.440Z,13.75
2023-03-29T20:16:15.295Z,13.73
2023-03-29T20:18:46.398Z,13.72
2023-03-29T20:21:17.017Z,13.68
2023-03-29T20:23:45.381Z,13.64
2023-03-29T20:26:13.422Z,13.61
2023-03-29T20:28:41.475Z,13.58
2023-03-29T20:31:12.026Z,13.57
2023-03-29T20:33:44.364Z,13.55
2023-03-29T20:36:13.436Z,13.55
2023-03-29T20:38:42.559Z,13.54
2023-03-29T20:41:10.982Z,13.52
2023-03-29T20:43:40.802Z,13.49
2023-03-29T20:46:14.964Z,13.47
2023-03-29T20:48:45.912Z,13.46
2023-03-29T20:51:14.145Z,13.43
2023-03-29T20:53:43.432Z,13.43
2023-03-29T20:56:13.189Z,13.40
2023-03-29T20:58:42.078Z,13.39
2023-03-29T21:01:14.125Z,13.38
2023-03-29T21:03:42.396Z,13.36
2023-03-29T21:06:14.041Z,13.34
2023-03-29T21:08:42.926Z,13.31
2023-03-29T21:11:13.967Z,13.29
2023-03-29T21:13:44.303Z,13.27
2023-03-29T21:16:16.549Z,13.25
2023-03-29T21:18:47.937Z,13.21
2023-03-29T21:21:16.324Z,13.20
2023-03-29T21:23:46.352Z,13.19
2023-03-29T21:26:14.422Z,13.20
2023-03-29T21:28:42.472Z,13.23
2023-03-29T21:31:10.901Z,13.23
2023-03-29T21:33:40.779Z,13.27
2023-03-29T21:36:09.449Z,13.29
2023-03-29T21:38:37.341Z,13.29
2023-03-29T21:41:07.201Z,13.29
2023-03-29T21:43:35.879Z,13.29
2023-03-29T21:46:07.294Z,13.36
2023-03-29T21:48:35.981Z,13.40
2023-03-29T21:51:07.039Z,13.42
2023-03-29T21:53:36.093Z,13.43
2023-03-29T21:56:04.541Z,13.43
2023-03-29T21:58:32.659Z,13.49
2023-03-29T22:01:03.715Z,13.47
2023-03-29T22:03:32.645Z,13.47
2023-03-29T22:06:03.183Z,13.45
2023-03-29T22:08:33.019Z,13.42
2023-03-29T22:11:08.254Z,13.41
2023-03-29T22:13:38.286Z,13.40
2023-03-29T22:16:07.746Z,13.38
2023-03-29T22:18:43.438Z,13.37
2023-03-29T22:21:16.164Z,13.36
2023-03-29T22:23:48.545Z,13.37
2023-03-29T22:26:21.715Z,13.35
2023-03-29T22:28:50.534Z,13.34
2023-03-29T22:31:22.956Z,13.31
2023-03-29T22:33:58.580Z,13.34
2023-03-29T22:36:28.558Z,13.33
2023-03-29T22:38:59.002Z,13.32
2023-03-29T22:41:28.161Z,13.30
2023-03-29T22:44:00.878Z,13.29
2023-03-29T22:46:30.300Z,13.29
2023-03-29T22:48:58.837Z,13.26
2023-03-29T22:51:27.250Z,13.24
2023-03-29T22:53:55.343Z,13.23
2023-03-29T22:56:25.121Z,13.16
2023-03-29T22:58:53.620Z,13.12
2023-03-29T23:01:24.291Z,13.11
2023-03-29T23:03:52.514Z,13.08
2023-03-29T23:06:21.057Z,13.09
2023-03-29T23:08:49.338Z,13.09
2023-03-29T23:11:17.581Z,13.11
2023-03-29T23:13:48.665Z,13.12
2023-03-29T23:16:17.171Z,13.12
2023-03-29T23:19:53.835Z,13.16
2023-03-29T23:22:23.833Z,13.18
2023-03-29T23:24:52.357Z,13.15
2023-03-29T23:27:20.558Z,13.12
2023-03-29T23:29:50.057Z,13.07
2023-03-29T23:32:18.018Z,13.05
2023-03-29T23:34:50.603Z,13.05
2023-03-29T23:37:19.397Z,13.07
2023-03-29T23:39:47.730Z,13.06
2023-03-29T23:42:15.790Z,13.02
2023-03-29T23:44:43.924Z,12.97
2023-03-29T23:47:13.872Z,12.96
2023-03-29T23:49:42.006Z,12.95
2023-03-29T23:56:41.186Z,12.97
2023-03-29T23:59:09.531Z,12.98
